Terminal Aerodrome Forecast
Issued by NWS Louisville, KY

Home | Current Version | Previous Version | Text Only | Print | Product List | Glossary On
Versions: 1 2 3 4 5 6 7 8 9 10 11 12 13 14 15 16 17 18
000
FTUS43 KLMK 031500 AAA
TAFLEX
TAF AMD
KLEX 031521Z 0315/0412 VRB03KT P6SM VCSH BKN012
     FM031800 23007KT P6SM VCTS BKN017CB
     FM032200 24010KT 5SM -SHRA VCTS BKN022CB
     FM040500 29004KT 5SM BR BKN008=

USA.gov is the U.S. government's official web portal to all federal, state and local government web resources and services.